Time;durP1;ratioP1;P1;durP2;ratioP2;P2;SDS_P1;SDS_P2;PMS_P1;PMS_P2;Temp;Humidity;BMP_temperature;BMP_pressure;BME280_temperature;BME280_humidity;BME280_pressure;Samples;Min_cycle;Max_cycle;Signal;HPM_P1;HPM_P2
2021/11/21 00:01:49;;;;;;;9.93;5.97;;;14.90;99.90;;;;;;5063794;28;20186;-65
2021/11/21 00:04:17;;;;;;;7.20;6.00;;;14.90;99.90;;;;;;5059534;28;20191;-64
2021/11/21 00:06:45;;;;;;;7.57;6.80;;;14.90;99.90;;;;;;5055654;28;20187;-64
2021/11/21 00:09:12;;;;;;;8.83;6.40;;;14.90;99.90;;;;;;5048963;28;20273;-64
2021/11/21 00:11:38;;;;;;;7.97;6.70;;;14.90;99.90;;;;;;5063083;28;20190;-64
2021/11/21 00:14:06;;;;;;;9.93;7.80;;;14.80;99.90;;;;;;5064432;28;20221;-64
2021/11/21 00:16:34;;;;;;;11.10;8.20;;;14.80;99.90;;;;;;5062499;28;20179;-64
2021/11/21 00:19:01;;;;;;;10.33;7.70;;;14.80;99.90;;;;;;5061906;28;20187;-64
2021/11/21 00:21:28;;;;;;;11.30;7.67;;;14.80;99.90;;;;;;5054609;28;20273;-64
2021/11/21 00:23:54;;;;;;;10.23;7.93;;;14.80;99.90;;;;;;5056934;28;20242;-64
2021/11/21 00:26:21;;;;;;;8.90;8.00;;;14.80;99.90;;;;;;5057703;28;20238;-64
2021/11/21 00:28:49;;;;;;;9.83;8.07;;;14.80;99.90;;;;;;5060097;28;20186;-63
2021/11/21 00:31:17;;;;;;;10.93;8.23;;;14.70;99.90;;;;;;5061292;28;20187;-64
2021/11/21 00:33:44;;;;;;;10.10;8.13;;;14.70;99.90;;;;;;5061334;28;20240;-64
2021/11/21 00:36:12;;;;;;;10.47;8.50;;;14.70;99.90;;;;;;5060270;28;20198;-63
2021/11/21 00:38:39;;;;;;;13.07;9.37;;;14.60;99.90;;;;;;5058285;28;20555;-64
2021/11/21 00:41:05;;;;;;;13.07;9.07;;;14.50;99.90;;;;;;5057394;28;20305;-63
2021/11/21 00:43:33;;;;;;;15.00;8.93;;;14.50;99.90;;;;;;5052085;28;20195;-63
2021/11/21 00:46:00;;;;;;;12.30;8.63;;;14.40;99.90;;;;;;5059623;28;20214;-63
2021/11/21 00:48:28;;;;;;;12.17;8.73;;;14.40;99.90;;;;;;5061745;28;20187;-62
2021/11/21 00:51:00;;;;;;;9.63;7.63;;;14.30;99.90;;;;;;5059156;28;20784;-63
2021/11/21 00:53:28;;;;;;;9.50;7.40;;;14.30;99.90;;;;;;5051962;28;20218;-63
2021/11/21 00:56:02;;;;;;;10.27;7.07;;;14.20;99.90;;;;;;5048002;28;20827;-63
2021/11/21 00:58:31;;;;;;;9.30;7.60;;;14.10;99.90;;;;;;5060628;28;20206;-63
2021/11/21 01:00:59;;;;;;;9.43;7.10;;;14.10;99.90;;;;;;5060007;28;20294;-63
2021/11/21 01:03:32;;;;;;;10.23;6.77;;;14.10;99.90;;;;;;5059072;28;20206;-62
2021/11/21 01:06:01;;;;;;;8.93;6.90;;;14.10;99.90;;;;;;5052026;28;20303;-63
2021/11/21 01:08:28;;;;;;;9.30;7.30;;;14.00;99.90;;;;;;5063989;28;20183;-63
2021/11/21 01:11:04;;;;;;;10.13;7.10;;;14.00;99.90;;;;;;5063269;28;20864;-62
2021/11/21 01:13:31;;;;;;;10.03;7.30;;;14.00;99.90;;;;;;5067043;28;20186;-63
2021/11/21 01:15:58;;;;;;;10.43;7.47;;;13.90;99.90;;;;;;5058488;28;20187;-63
2021/11/21 01:18:24;;;;;;;10.03;6.97;;;13.90;99.90;;;;;;5065706;28;20236;-64
2021/11/21 01:20:50;;;;;;;10.47;7.00;;;13.80;99.90;;;;;;5052263;28;20192;-63
2021/11/21 01:23:18;;;;;;;10.10;7.00;;;13.80;99.90;;;;;;5061217;28;20871;-64
2021/11/21 01:25:47;;;;;;;8.47;6.57;;;13.80;99.90;;;;;;5056206;28;20685;-64
2021/11/21 01:28:14;;;;;;;7.97;6.80;;;13.80;99.90;;;;;;5071813;28;20198;-65
2021/11/21 01:30:43;;;;;;;7.90;6.87;;;13.80;99.90;;;;;;5063570;28;20199;-63
2021/11/21 01:33:09;;;;;;;9.07;6.40;;;13.80;99.90;;;;;;5062215;28;20622;-65
2021/11/21 01:35:36;;;;;;;9.20;7.23;;;13.80;99.90;;;;;;5064301;28;20187;-64
2021/11/21 01:38:06;;;;;;;9.23;6.63;;;13.80;99.90;;;;;;5047807;28;20191;-64
2021/11/21 01:40:33;;;;;;;7.73;6.13;;;13.80;99.90;;;;;;5050823;28;20187;-64
2021/11/21 01:43:00;;;;;;;8.33;6.73;;;13.80;99.90;;;;;;5057901;28;20241;-65
2021/11/21 01:45:27;;;;;;;9.47;7.10;;;13.80;99.90;;;;;;5050756;28;20239;-64
2021/11/21 01:47:53;;;;;;;11.47;7.70;;;13.80;99.90;;;;;;5058288;28;20202;-64
2021/11/21 01:50:30;;;;;;;16.37;8.20;;;13.70;99.90;;;;;;5060276;28;20186;-64
2021/11/21 01:52:57;;;;;;;11.07;7.50;;;13.70;99.90;;;;;;5053635;28;20285;-65
2021/11/21 01:55:25;;;;;;;14.57;7.20;;;13.60;99.90;;;;;;5075076;28;20191;-65
2021/11/21 01:57:56;;;;;;;12.27;8.27;;;13.60;99.90;;;;;;5061877;28;20207;-65
2021/11/21 02:00:29;;;;;;;11.00;7.57;;;13.60;99.90;;;;;;5045018;28;20282;-64
2021/11/21 02:02:55;;;;;;;7.90;6.63;;;13.60;99.90;;;;;;5053932;28;20191;-65
2021/11/21 02:05:22;;;;;;;8.80;6.10;;;13.50;99.90;;;;;;5052151;28;20215;-64
2021/11/21 02:07:50;;;;;;;8.13;6.10;;;13.50;99.90;;;;;;5061351;28;20707;-65
2021/11/21 02:10:20;;;;;;;7.93;5.83;;;13.50;99.90;;;;;;5063158;28;20236;-64
2021/11/21 02:12:47;;;;;;;8.17;5.60;;;13.60;99.90;;;;;;5063825;28;20183;-64
2021/11/21 02:15:18;;;;;;;9.70;6.13;;;13.60;99.90;;;;;;5053839;28;20655;-65
2021/11/21 02:17:45;;;;;;;9.93;6.00;;;13.60;99.90;;;;;;5063909;28;20531;-64
2021/11/21 02:20:18;;;;;;;11.67;6.60;;;13.70;99.90;;;;;;5063011;28;20710;-64
2021/11/21 02:22:45;;;;;;;9.90;6.50;;;13.60;99.90;;;;;;5053232;28;20278;-65
2021/11/21 02:25:11;;;;;;;10.10;5.30;;;13.60;99.90;;;;;;5056420;28;20606;-64
2021/11/21 02:27:38;;;;;;;8.90;6.00;;;13.50;99.90;;;;;;5055794;28;20184;-64
2021/11/21 02:30:08;;;;;;;7.60;5.37;;;13.50;99.90;;;;;;5054857;28;20185;-64
2021/11/21 02:32:37;;;;;;;7.87;5.30;;;13.50;99.90;;;;;;5055729;28;20247;-64
2021/11/21 02:35:03;;;;;;;8.57;5.00;;;13.40;99.90;;;;;;5058376;28;20191;-64
2021/11/21 02:37:30;;;;;;;8.00;5.73;;;13.30;99.90;;;;;;5040802;28;20260;-64
2021/11/21 02:39:56;;;;;;;6.73;4.80;;;13.30;99.90;;;;;;5052221;28;20783;-63
2021/11/21 02:42:34;;;;;;;7.87;5.00;;;13.30;99.90;;;;;;5053706;28;20193;-63
2021/11/21 02:45:03;;;;;;;5.90;5.03;;;13.30;99.90;;;;;;5049725;28;20288;-63
2021/11/21 02:47:33;;;;;;;8.60;6.20;;;13.30;99.90;;;;;;5049871;28;20182;-63
2021/11/21 02:50:29;;;;;;;7.77;6.13;;;13.30;99.90;;;;;;5075657;28;20186;-63
2021/11/21 02:52:58;;;;;;;8.87;6.00;;;13.30;99.90;;;;;;5059906;28;20198;-62
2021/11/21 02:55:31;;;;;;;7.60;5.27;;;13.30;99.90;;;;;;5054811;28;20689;-63
2021/11/21 02:57:59;;;;;;;6.63;5.20;;;13.40;99.90;;;;;;5059771;28;20199;-63
2021/11/21 03:00:26;;;;;;;6.50;5.27;;;13.40;99.90;;;;;;5053941;28;20190;-63
2021/11/21 03:02:53;;;;;;;8.70;5.13;;;13.50;99.90;;;;;;5058590;28;20225;-63
2021/11/21 03:05:20;;;;;;;9.27;4.57;;;13.50;99.90;;;;;;5045924;28;20207;-63
2021/11/21 03:07:49;;;;;;;9.63;4.50;;;13.50;99.90;;;;;;5056719;28;20189;-62
2021/11/21 03:10:19;;;;;;;7.43;4.97;;;13.50;99.90;;;;;;5057744;28;20191;-63
2021/11/21 03:12:54;;;;;;;6.43;4.70;;;13.60;99.90;;;;;;5044254;28;20282;-62
2021/11/21 03:15:22;;;;;;;8.00;4.77;;;13.60;99.90;;;;;;5065996;28;20207;-63
2021/11/21 03:17:50;;;;;;;5.63;4.27;;;13.50;99.90;;;;;;5049233;28;20205;-63
2021/11/21 03:20:26;;;;;;;7.63;4.63;;;13.60;99.90;;;;;;5055692;28;20198;-63
2021/11/21 03:22:52;;;;;;;8.00;4.47;;;13.60;99.90;;;;;;5062443;28;20217;-63
2021/11/21 03:25:19;;;;;;;6.83;4.33;;;13.60;99.90;;;;;;5053796;28;20817;-63
2021/11/21 03:27:45;;;;;;;7.67;4.13;;;13.60;99.90;;;;;;5061503;28;20182;-62
2021/11/21 03:30:17;;;;;;;5.27;4.30;;;13.60;99.90;;;;;;5055815;28;20214;-63
2021/11/21 03:32:46;;;;;;;6.43;4.03;;;13.60;99.90;;;;;;5054199;28;20278;-64
2021/11/21 03:35:14;;;;;;;6.63;4.40;;;13.60;99.90;;;;;;5055175;28;20293;-63
2021/11/21 03:37:42;;;;;;;7.37;4.13;;;13.60;99.90;;;;;;5056746;28;20191;-65
2021/11/21 03:40:12;;;;;;;4.70;4.20;;;13.60;99.90;;;;;;5057020;28;20369;-64
2021/11/21 03:42:39;;;;;;;5.63;3.97;;;13.60;99.90;;;;;;5056377;28;20256;-65
2021/11/21 03:45:07;;;;;;;5.30;4.00;;;13.60;99.90;;;;;;5052028;28;20726;-64
2021/11/21 03:47:34;;;;;;;4.57;3.90;;;13.70;99.90;;;;;;5048830;28;20192;-65
2021/11/21 03:50:01;;;;;;;6.83;4.03;;;13.70;99.90;;;;;;5054050;28;20225;-65
2021/11/21 03:52:27;;;;;;;6.00;4.27;;;13.70;99.90;;;;;;5054876;28;20237;-65
2021/11/21 03:54:53;;;;;;;7.37;4.47;;;13.70;99.90;;;;;;5056054;28;20283;-65
2021/11/21 03:57:20;;;;;;;4.80;3.63;;;13.70;99.90;;;;;;5054140;28;20230;-64
2021/11/21 03:59:46;;;;;;;6.10;4.13;;;13.70;99.90;;;;;;5050642;28;20516;-65
2021/11/21 04:02:13;;;;;;;5.57;4.03;;;13.70;99.90;;;;;;5056467;28;20656;-65
2021/11/21 04:04:39;;;;;;;5.90;4.03;;;13.70;99.90;;;;;;5056574;28;20267;-64
2021/11/21 04:07:05;;;;;;;4.77;3.60;;;13.80;99.90;;;;;;5058965;28;20237;-64
2021/11/21 04:09:32;;;;;;;4.33;3.80;;;13.70;99.90;;;;;;5054920;28;20574;-64
2021/11/21 04:11:58;;;;;;;5.10;4.27;;;13.70;99.90;;;;;;5064438;28;20244;-65
2021/11/21 04:14:25;;;;;;;6.87;4.50;;;13.80;99.90;;;;;;5064996;28;20244;-65
2021/11/21 04:16:51;;;;;;;5.60;4.20;;;13.80;99.90;;;;;;5059594;28;20266;-65
2021/11/21 04:19:17;;;;;;;6.10;4.10;;;13.70;99.90;;;;;;5061136;28;20601;-65
2021/11/21 04:21:43;;;;;;;4.50;3.93;;;13.70;99.90;;;;;;5065597;28;20269;-64
2021/11/21 04:24:12;;;;;;;5.90;3.90;;;13.70;99.90;;;;;;5057070;28;20213;-63
2021/11/21 04:26:42;;;;;;;4.50;3.73;;;13.70;99.90;;;;;;5054239;28;20203;-64
2021/11/21 04:29:08;;;;;;;4.73;3.30;;;13.60;99.90;;;;;;5050697;28;20278;-63
2021/11/21 04:31:34;;;;;;;4.73;3.50;;;13.50;99.90;;;;;;5054488;28;20217;-63
2021/11/21 04:34:01;;;;;;;5.53;4.17;;;13.50;99.90;;;;;;5052839;28;20195;-64
2021/11/21 04:36:27;;;;;;;6.93;4.00;;;13.50;99.90;;;;;;5057790;28;20195;-64
2021/11/21 04:38:53;;;;;;;7.50;4.53;;;13.40;99.90;;;;;;5054418;28;20191;-62
2021/11/21 04:41:20;;;;;;;6.37;3.60;;;13.40;99.90;;;;;;5056852;28;20202;-63
2021/11/21 04:43:48;;;;;;;8.00;4.33;;;13.40;99.90;;;;;;5058537;28;20265;-62
2021/11/21 04:46:15;;;;;;;7.70;4.33;;;13.40;99.90;;;;;;5055420;28;20265;-64
2021/11/21 04:48:41;;;;;;;10.20;4.73;;;13.40;99.90;;;;;;5051930;28;20229;-66
2021/11/21 04:51:07;;;;;;;6.90;5.03;;;13.40;99.90;;;;;;5047219;28;20217;-65
2021/11/21 04:53:34;;;;;;;11.43;5.00;;;13.40;99.90;;;;;;5057582;28;20190;-64
2021/11/21 04:56:00;;;;;;;9.20;4.57;;;13.40;99.90;;;;;;5062131;28;20190;-65
2021/11/21 04:58:26;;;;;;;11.10;5.23;;;13.40;99.90;;;;;;5059564;28;20299;-64
2021/11/21 05:00:52;;;;;;;9.87;5.10;;;13.30;99.90;;;;;;5056231;28;20830;-65
2021/11/21 05:03:19;;;;;;;9.53;5.63;;;13.40;99.90;;;;;;5052289;28;20841;-65
2021/11/21 05:05:45;;;;;;;10.33;5.10;;;13.30;99.90;;;;;;5053594;28;20215;-66
2021/11/21 05:08:11;;;;;;;9.57;5.53;;;13.40;99.90;;;;;;5057370;28;21876;-66
2021/11/21 05:10:38;;;;;;;11.07;5.50;;;13.40;99.90;;;;;;5054875;28;20244;-66
2021/11/21 05:13:04;;;;;;;12.47;5.67;;;13.40;99.90;;;;;;5057587;28;20202;-66
2021/11/21 05:15:31;;;;;;;13.07;6.37;;;13.50;99.90;;;;;;5056820;28;20192;-66
2021/11/21 05:17:57;;;;;;;13.60;6.40;;;13.50;99.90;;;;;;5057549;28;21007;-66
2021/11/21 05:20:23;;;;;;;14.27;6.83;;;13.60;99.90;;;;;;5059233;28;20194;-66
2021/11/21 05:22:50;;;;;;;12.33;6.50;;;13.60;99.90;;;;;;5052546;28;20854;-65
2021/11/21 05:25:17;;;;;;;14.43;6.43;;;13.60;99.90;;;;;;5061330;28;20606;-68
2021/11/21 05:27:46;;;;;;;10.97;5.60;;;13.60;99.90;;;;;;5055132;28;20616;-65
2021/11/21 05:30:14;;;;;;;8.20;5.20;;;13.60;99.90;;;;;;5050340;28;20191;-65
2021/11/21 05:32:42;;;;;;;10.67;5.03;;;13.60;99.90;;;;;;5048698;28;20198;-68
2021/11/21 05:35:08;;;;;;;6.37;4.20;;;13.50;99.90;;;;;;5063328;28;20205;-67
2021/11/21 05:37:36;;;;;;;7.87;4.30;;;13.60;99.90;;;;;;5065238;28;20194;-67
2021/11/21 05:40:07;;;;;;;5.50;4.17;;;13.60;99.90;;;;;;5053713;28;20226;-67
2021/11/21 05:42:34;;;;;;;5.37;4.07;;;13.60;99.90;;;;;;5056648;28;20195;-67
2021/11/21 05:45:00;;;;;;;7.27;4.43;;;13.70;99.90;;;;;;5063530;28;20242;-64
2021/11/21 05:47:26;;;;;;;4.73;4.23;;;13.70;99.90;;;;;;5058099;28;20192;-65
2021/11/21 05:49:53;;;;;;;6.60;4.57;;;13.70;99.90;;;;;;5052585;28;20195;-65
2021/11/21 05:52:19;;;;;;;5.57;4.40;;;13.70;99.90;;;;;;5049397;28;20195;-65
2021/11/21 05:54:46;;;;;;;5.03;4.53;;;13.70;99.90;;;;;;5041889;28;20195;-67
2021/11/21 05:57:13;;;;;;;6.20;4.73;;;13.80;99.90;;;;;;5059126;28;20281;-65
2021/11/21 05:59:40;;;;;;;6.77;5.30;;;13.80;99.90;;;;;;5053647;28;20202;-67
2021/11/21 06:02:07;;;;;;;9.13;6.47;;;13.80;99.90;;;;;;5047351;28;20191;-67
2021/11/21 06:04:34;;;;;;;9.67;6.20;;;13.80;99.90;;;;;;5053949;28;20222;-67
2021/11/21 06:07:00;;;;;;;10.57;6.53;;;13.90;99.90;;;;;;5048557;28;20191;-67
2021/11/21 06:09:27;;;;;;;12.80;6.53;;;13.90;99.90;;;;;;5053408;28;20183;-67
2021/11/21 06:11:54;;;;;;;9.23;6.17;;;14.00;99.90;;;;;;5065759;28;20195;-67
2021/11/21 06:14:22;;;;;;;9.13;6.33;;;14.00;99.90;;;;;;5059872;28;20346;-67
2021/11/21 06:16:49;;;;;;;9.57;6.13;;;14.10;99.90;;;;;;5059910;28;20698;-66
2021/11/21 06:19:16;;;;;;;9.33;6.07;;;14.10;99.90;;;;;;5060618;28;20200;-67
2021/11/21 06:21:42;;;;;;;8.70;5.90;;;14.20;99.90;;;;;;5060243;28;20204;-67
2021/11/21 06:24:08;;;;;;;9.10;5.83;;;14.20;99.90;;;;;;5060387;28;20199;-66
2021/11/21 06:26:35;;;;;;;8.03;5.80;;;14.30;99.90;;;;;;5058837;28;20797;-67
2021/11/21 06:29:01;;;;;;;8.00;5.47;;;14.40;99.90;;;;;;5059025;28;20421;-67
2021/11/21 06:31:29;;;;;;;6.67;5.57;;;14.40;99.90;;;;;;5056284;28;20661;-66
2021/11/21 06:33:56;;;;;;;6.63;5.70;;;14.40;99.90;;;;;;5061386;28;20187;-67
2021/11/21 06:36:24;;;;;;;11.57;6.13;;;14.50;99.90;;;;;;5053702;28;20628;-67
2021/11/21 06:38:50;;;;;;;6.73;5.53;;;14.50;99.90;;;;;;5055909;28;20711;-67
2021/11/21 06:41:20;;;;;;;8.70;6.23;;;14.60;99.90;;;;;;5053150;28;20195;-66
2021/11/21 06:43:46;;;;;;;8.43;5.70;;;14.60;99.90;;;;;;5057738;28;20214;-67
2021/11/21 06:46:15;;;;;;;7.93;5.90;;;14.60;99.90;;;;;;5057421;28;20297;-67
2021/11/21 06:48:43;;;;;;;6.83;5.37;;;14.60;99.90;;;;;;5054132;28;20324;-67
2021/11/21 06:51:09;;;;;;;9.50;5.90;;;14.60;99.90;;;;;;5048542;28;20274;-67
2021/11/21 06:53:37;;;;;;;7.33;5.83;;;14.70;99.90;;;;;;5058058;28;20222;-67
2021/11/21 06:56:03;;;;;;;11.20;5.90;;;14.80;99.90;;;;;;5056553;28;20201;-64
2021/11/21 06:58:29;;;;;;;7.70;5.70;;;14.80;99.90;;;;;;5064319;28;20873;-65
2021/11/21 07:00:56;;;;;;;7.73;5.53;;;14.90;99.90;;;;;;5063922;28;20273;-65
2021/11/21 07:03:22;;;;;;;7.03;5.20;;;14.90;99.90;;;;;;5063498;28;20218;-66
2021/11/21 07:05:48;;;;;;;7.53;5.60;;;14.90;99.90;;;;;;5060776;28;20222;-66
2021/11/21 07:08:16;;;;;;;8.07;5.60;;;15.00;99.90;;;;;;5060416;28;20244;-67
2021/11/21 07:10:42;;;;;;;8.47;5.40;;;15.10;99.90;;;;;;5050036;28;20200;-68
2021/11/21 07:13:09;;;;;;;9.20;5.73;;;15.20;99.90;;;;;;5059160;28;20192;-64
2021/11/21 07:15:35;;;;;;;6.83;5.43;;;15.20;99.90;;;;;;5057345;28;20195;-64
2021/11/21 07:18:01;;;;;;;8.37;5.57;;;15.20;99.90;;;;;;5052738;28;20191;-63
2021/11/21 07:20:28;;;;;;;7.40;5.47;;;15.20;99.90;;;;;;5054324;28;20190;-63
2021/11/21 07:22:54;;;;;;;8.53;5.40;;;15.20;99.90;;;;;;5055231;28;20639;-64
2021/11/21 07:25:24;;;;;;;7.90;5.50;;;15.20;99.90;;;;;;5060840;28;20237;-65
2021/11/21 07:27:52;;;;;;;9.30;5.77;;;15.30;99.90;;;;;;5063405;28;20198;-66
2021/11/21 07:30:22;;;;;;;6.73;5.80;;;15.30;99.90;;;;;;5051254;28;20199;-66
2021/11/21 07:32:50;;;;;;;9.87;5.90;;;15.30;99.90;;;;;;5053317;28;20199;-66
2021/11/21 07:35:18;;;;;;;10.83;7.00;;;15.40;99.90;;;;;;5055512;28;20197;-66
2021/11/21 07:37:45;;;;;;;9.73;6.80;;;15.40;99.90;;;;;;5063266;28;20251;-64
2021/11/21 07:40:15;;;;;;;8.23;5.77;;;15.50;99.90;;;;;;5059291;28;20665;-65
2021/11/21 07:42:43;;;;;;;12.17;6.90;;;15.60;99.90;;;;;;5053990;28;20206;-65
2021/11/21 07:45:11;;;;;;;11.67;7.97;;;15.60;99.90;;;;;;5063396;28;20222;-65
2021/11/21 07:47:40;;;;;;;10.73;6.60;;;15.70;99.90;;;;;;5063932;28;20197;-65
2021/11/21 07:50:07;;;;;;;8.43;6.50;;;15.80;99.90;;;;;;5059445;28;20198;-65
2021/11/21 07:52:33;;;;;;;8.50;5.87;;;15.90;99.90;;;;;;5058268;28;20249;-65
2021/11/21 07:55:00;;;;;;;11.27;6.67;;;16.00;99.90;;;;;;5052938;28;20195;-65
2021/11/21 07:57:26;;;;;;;7.40;6.50;;;16.00;99.90;;;;;;5063120;28;20211;-65
2021/11/21 07:59:52;;;;;;;9.33;7.37;;;16.10;99.90;;;;;;5065177;28;20647;-66
2021/11/21 08:02:19;;;;;;;8.67;7.27;;;16.20;99.90;;;;;;5065804;28;20278;-66
2021/11/21 08:04:45;;;;;;;7.87;7.07;;;16.20;99.90;;;;;;5056555;28;20264;-65
2021/11/21 08:07:11;;;;;;;11.37;7.67;;;16.30;99.90;;;;;;5059389;28;20573;-66
2021/11/21 08:09:38;;;;;;;11.60;7.67;;;16.30;99.90;;;;;;5055608;28;20195;-64
2021/11/21 08:12:05;;;;;;;12.30;8.00;;;16.40;99.90;;;;;;5053675;28;20191;-64
2021/11/21 08:14:32;;;;;;;11.07;7.10;;;16.40;99.90;;;;;;5063430;28;20258;-64
2021/11/21 08:16:58;;;;;;;10.57;8.07;;;16.30;99.90;;;;;;5060113;28;20203;-64
2021/11/21 08:19:24;;;;;;;10.60;7.40;;;16.40;99.90;;;;;;5053555;28;20192;-65
2021/11/21 08:21:51;;;;;;;13.07;7.20;;;16.40;99.90;;;;;;5052993;28;20278;-65
2021/11/21 08:24:17;;;;;;;12.27;7.90;;;16.50;99.90;;;;;;5050442;28;20198;-65
2021/11/21 08:26:43;;;;;;;11.83;7.20;;;16.50;99.90;;;;;;5052926;28;20222;-66
2021/11/21 08:29:09;;;;;;;9.93;7.37;;;16.50;99.90;;;;;;5057627;28;20214;-65
2021/11/21 08:31:36;;;;;;;9.03;7.00;;;16.60;99.90;;;;;;5056768;28;20650;-65
2021/11/21 08:34:02;;;;;;;10.50;7.20;;;16.60;99.90;;;;;;5062199;28;20726;-65
2021/11/21 08:36:29;;;;;;;11.67;6.73;;;16.70;99.90;;;;;;5063070;28;20188;-65
2021/11/21 08:38:55;;;;;;;9.83;6.57;;;16.70;99.90;;;;;;5064798;28;20282;-65
2021/11/21 08:41:21;;;;;;;8.50;6.73;;;16.80;99.90;;;;;;5063737;28;20411;-65
2021/11/21 08:43:48;;;;;;;7.80;6.40;;;16.80;99.90;;;;;;5050854;28;20210;-64
2021/11/21 08:46:14;;;;;;;7.87;6.10;;;16.80;99.90;;;;;;5060196;28;20219;-64
2021/11/21 08:48:40;;;;;;;8.63;6.53;;;16.70;99.90;;;;;;5057737;28;20650;-64
2021/11/21 08:51:07;;;;;;;9.77;6.57;;;16.70;99.90;;;;;;5060707;28;20269;-65
2021/11/21 08:53:33;;;;;;;8.97;6.37;;;16.70;99.90;;;;;;5062936;28;20199;-65
2021/11/21 08:56:00;;;;;;;9.37;6.63;;;16.70;99.90;;;;;;5054310;28;20195;-65
2021/11/21 08:58:26;;;;;;;12.27;7.70;;;16.70;99.90;;;;;;5054922;28;20195;-65
2021/11/21 09:00:52;;;;;;;11.27;6.63;;;16.70;99.90;;;;;;5059416;28;20202;-64
2021/11/21 09:03:19;;;;;;;11.87;7.00;;;16.80;99.90;;;;;;5061013;28;20222;-63
2021/11/21 09:05:45;;;;;;;8.77;5.93;;;16.80;99.90;;;;;;5054470;28;20298;-63
2021/11/21 09:08:14;;;;;;;10.50;6.83;;;16.90;99.90;;;;;;5060758;28;20290;-65
2021/11/21 09:10:40;;;;;;;9.20;6.37;;;17.00;99.90;;;;;;5056682;28;22060;-64
2021/11/21 09:13:07;;;;;;;8.50;6.50;;;17.00;99.90;;;;;;5050139;28;20182;-65
2021/11/21 09:15:33;;;;;;;7.20;5.87;;;17.10;99.90;;;;;;5065337;28;20190;-65
2021/11/21 09:18:00;;;;;;;10.23;6.33;;;17.10;99.90;;;;;;5062566;28;20191;-64
2021/11/21 09:20:27;;;;;;;10.03;6.33;;;17.20;99.90;;;;;;5055521;28;20199;-64
2021/11/21 09:22:56;;;;;;;10.47;6.77;;;17.20;99.90;;;;;;5052234;28;20222;-64
2021/11/21 09:25:24;;;;;;;12.07;6.10;;;17.30;99.90;;;;;;5062977;28;20591;-64
2021/11/21 09:27:51;;;;;;;11.17;6.70;;;17.40;99.90;;;;;;5059098;28;20191;-64
2021/11/21 09:30:17;;;;;;;11.67;6.60;;;17.40;99.90;;;;;;5057340;28;20190;-64
2021/11/21 09:32:44;;;;;;;9.93;7.43;;;17.40;99.90;;;;;;5061791;28;20220;-65
2021/11/21 09:35:11;;;;;;;11.33;6.17;;;17.30;99.90;;;;;;5065945;28;20195;-65
2021/11/21 09:37:38;;;;;;;11.90;8.10;;;17.30;99.90;;;;;;5056223;28;20660;-64
2021/11/21 09:40:07;;;;;;;11.70;8.63;;;17.30;99.90;;;;;;5055226;28;20194;-65
2021/11/21 09:42:35;;;;;;;10.97;8.13;;;17.30;99.90;;;;;;5048865;28;20281;-65
2021/11/21 09:45:03;;;;;;;13.17;8.37;;;17.30;99.90;;;;;;5059948;28;20303;-65
2021/11/21 09:47:30;;;;;;;13.17;7.60;;;17.30;99.90;;;;;;5039913;28;20214;-66
2021/11/21 09:50:06;;;;;;;10.77;7.40;;;17.30;99.90;;;;;;5053075;28;20199;-65
2021/11/21 09:52:33;;;;;;;9.33;6.70;;;17.30;99.90;;;;;;5062844;28;20186;-65
2021/11/21 09:54:59;;;;;;;8.80;6.80;;;17.30;99.90;;;;;;5059096;28;20206;-64
2021/11/21 09:57:28;;;;;;;10.73;7.17;;;17.30;99.90;;;;;;5060543;28;20206;-64
2021/11/21 10:00:03;;;;;;;8.47;6.30;;;17.30;99.90;;;;;;5054719;28;20539;-64
2021/11/21 10:02:38;;;;;;;12.93;7.07;;;17.30;99.90;;;;;;5057634;28;20265;-65
2021/11/21 10:05:28;;;;;;;7.83;6.47;;;17.30;99.90;;;;;;5055275;28;20539;-66
2021/11/21 10:08:22;;;;;;;8.87;6.43;;;17.30;99.90;;;;;;5056374;28;21026;-66
2021/11/21 10:10:56;;;;;;;11.77;7.10;;;17.30;99.90;;;;;;5057912;28;20621;-65
2021/11/21 10:13:51;;;;;;;14.93;8.47;;;17.40;99.90;;;;;;5062142;28;20901;-65
2021/11/21 10:16:20;;;;;;;9.80;7.07;;;17.50;99.90;;;;;;5052624;28;20554;-66
2021/11/21 10:19:11;;;;;;;11.80;7.07;;;17.50;99.90;;;;;;5058479;28;20206;-66
2021/11/21 10:21:54;;;;;;;13.03;7.50;;;17.50;99.90;;;;;;5057906;28;20601;-66
2021/11/21 10:24:32;;;;;;;10.90;7.13;;;17.70;99.90;;;;;;5059640;28;20199;-66
2021/11/21 10:27:16;;;;;;;12.40;7.33;;;17.70;99.90;;;;;;5066247;28;20198;-66
2021/11/21 10:29:47;;;;;;;13.00;7.43;;;17.80;99.90;;;;;;5062745;28;20193;-66
2021/11/21 10:32:31;;;;;;;10.47;7.20;;;17.90;99.90;;;;;;5058829;28;20222;-66
2021/11/21 10:35:04;;;;;;;9.53;6.57;;;17.90;99.90;;;;;;5043064;28;20194;-66
2021/11/21 10:37:37;;;;;;;8.73;6.77;;;18.00;99.90;;;;;;5043332;28;20925;-66
2021/11/21 10:40:12;;;;;;;11.60;6.13;;;17.90;99.90;;;;;;5060882;28;20194;-66
2021/11/21 10:42:41;;;;;;;8.77;6.17;;;17.90;99.90;;;;;;5060905;28;20283;-66
2021/11/21 10:45:11;;;;;;;8.87;5.87;;;17.90;99.90;;;;;;5058570;28;20301;-66
2021/11/21 10:47:53;;;;;;;7.10;5.60;;;17.80;99.90;;;;;;5061056;28;20192;-66
2021/11/21 10:50:35;;;;;;;8.07;5.70;;;17.80;99.90;;;;;;5058007;28;20191;-66
2021/11/21 10:53:08;;;;;;;8.53;6.07;;;17.80;99.90;;;;;;5059246;28;20836;-66
2021/11/21 10:55:36;;;;;;;8.33;6.03;;;17.80;99.90;;;;;;5040570;28;20225;-66
2021/11/21 10:58:12;;;;;;;10.23;6.37;;;17.80;99.90;;;;;;5049363;28;20313;-66
2021/11/21 11:00:40;;;;;;;8.53;6.37;;;17.80;99.90;;;;;;5052965;28;20205;-66
2021/11/21 11:03:17;;;;;;;10.03;6.57;;;17.80;99.90;;;;;;5058266;28;20198;-66
2021/11/21 11:05:44;;;;;;;9.50;6.50;;;17.80;99.90;;;;;;5056974;28;20211;-66
2021/11/21 11:08:13;;;;;;;9.93;6.93;;;17.80;99.90;;;;;;5060444;28;20183;-66
2021/11/21 11:10:40;;;;;;;9.00;6.50;;;17.90;99.90;;;;;;5056059;28;20461;-66
2021/11/21 11:13:14;;;;;;;9.83;6.20;;;18.10;99.90;;;;;;5051386;28;20207;-66
2021/11/21 11:15:45;;;;;;;12.63;6.57;;;18.20;99.90;;;;;;5048855;28;20195;-66
2021/11/21 11:18:16;;;;;;;13.70;6.90;;;18.30;99.90;;;;;;5056496;28;20958;-65
2021/11/21 11:20:47;;;;;;;9.87;6.03;;;18.40;99.90;;;;;;5055377;28;20306;-65
2021/11/21 11:23:17;;;;;;;6.40;4.93;;;18.60;99.90;;;;;;5074147;28;20241;-65
2021/11/21 11:25:44;;;;;;;7.30;4.53;;;18.70;99.90;;;;;;5053114;28;20207;-66
2021/11/21 11:28:28;;;;;;;5.17;4.03;;;18.60;99.90;;;;;;5053002;28;20179;-65
2021/11/21 11:30:57;;;;;;;6.37;3.77;;;18.40;99.90;;;;;;5056691;28;20679;-65
2021/11/21 11:33:36;;;;;;;4.57;3.63;;;18.30;99.90;;;;;;5058684;28;20187;-65
2021/11/21 11:36:03;;;;;;;7.80;3.83;;;18.20;99.90;;;;;;5056195;28;20198;-66
2021/11/21 11:38:32;;;;;;;3.87;3.47;;;18.00;99.90;;;;;;5052096;28;20207;-65
2021/11/21 11:41:05;;;;;;;4.90;3.93;;;18.00;99.90;;;;;;5059218;28;20195;-65
2021/11/21 11:43:40;;;;;;;4.13;3.20;;;17.90;99.90;;;;;;5051063;28;20187;-66
2021/11/21 11:46:19;;;;;;;6.70;3.67;;;17.90;99.90;;;;;;5052469;28;20214;-65
2021/11/21 11:48:51;;;;;;;4.20;3.30;;;17.90;99.90;;;;;;5053476;28;20194;-65
2021/11/21 11:51:48;;;;;;;3.70;3.30;;;17.80;99.90;;;;;;5053126;28;20187;-65
2021/11/21 11:54:15;;;;;;;3.90;3.30;;;17.80;99.90;;;;;;5062111;28;20210;-66
2021/11/21 11:56:46;;;;;;;7.20;3.47;;;17.80;99.90;;;;;;5060551;28;20187;-65
2021/11/21 11:59:30;;;;;;;4.70;3.53;;;17.50;99.90;;;;;;5054211;28;20290;-66
2021/11/21 12:02:02;;;;;;;5.07;3.87;;;17.60;99.90;;;;;;5060954;28;20190;-66
2021/11/21 12:04:28;;;;;;;4.97;3.77;;;17.60;99.90;;;;;;5056518;28;20215;-66
2021/11/21 12:07:17;;;;;;;6.30;3.77;;;17.50;99.90;;;;;;5055012;28;20215;-65
2021/11/21 12:10:09;;;;;;;5.40;4.67;;;17.50;99.90;;;;;;5052309;28;20199;-66
2021/11/21 12:12:52;;;;;;;5.97;4.50;;;17.50;99.90;;;;;;5053124;28;20183;-65
2021/11/21 12:15:54;;;;;;;6.20;4.40;;;17.50;99.90;;;;;;5048787;28;20828;-66
2021/11/21 12:18:56;;;;;;;5.53;4.63;;;17.50;99.90;;;;;;5059863;28;20289;-66
2021/11/21 12:21:41;;;;;;;7.33;5.27;;;17.40;99.90;;;;;;5052769;28;20279;-66
2021/11/21 12:24:22;;;;;;;6.57;4.57;;;17.40;99.90;;;;;;5053627;28;20261;-67
2021/11/21 12:26:49;;;;;;;7.50;4.70;;;17.50;99.90;;;;;;5059648;28;20692;-67
2021/11/21 12:29:18;;;;;;;7.10;4.90;;;17.50;99.90;;;;;;5062954;28;20261;-66
2021/11/21 12:31:47;;;;;;;7.07;4.60;;;17.60;99.90;;;;;;5065078;28;20194;-66
2021/11/21 12:34:39;;;;;;;6.13;4.83;;;17.70;99.90;;;;;;5064104;28;20194;-67
2021/11/21 12:37:39;;;;;;;5.67;4.90;;;17.90;99.90;;;;;;5058831;28;20228;-66
2021/11/21 12:40:11;;;;;;;6.40;5.07;;;17.90;99.90;;;;;;5057386;28;20270;-66
2021/11/21 12:42:40;;;;;;;6.20;4.73;;;18.00;99.90;;;;;;5058979;28;20674;-66
2021/11/21 12:45:09;;;;;;;5.63;4.67;;;18.00;99.90;;;;;;5053390;28;20535;-66
2021/11/21 12:47:37;;;;;;;6.00;4.70;;;18.00;99.90;;;;;;5058770;28;20217;-66
2021/11/21 12:50:06;;;;;;;8.70;4.13;;;18.10;99.90;;;;;;5041580;28;20188;-66
2021/11/21 12:52:32;;;;;;;6.23;4.73;;;18.10;99.90;;;;;;5063007;28;20546;-66
2021/11/21 12:54:59;;;;;;;6.80;4.43;;;18.10;99.90;;;;;;5052583;28;20191;-67